LIRN/NAP METAR and TAF weather

Enter ICAO airport designator
Station Type Date Time Source
LIRN METAR 2018/12/10 13:50 UTC NOAA

LIRN 101350Z 33006KT CAVOK 16/04 Q1011 NOSIG


Station Type Date Time Source
LIRN Decoded METAR 2018/12/10 13:50 UTC NOAA

Napoli / Capodichino, Italy (LIRN) 40-51N 014-18E 72M
Dec 10, 2018 - 08:50 AM EST / 2018.12.10 1350 UTC
Wind: from the NNW (330 degrees) at 7 MPH (6 KT):0
Visibility: greater than 7 mile(s):0
Temperature: 60 F (16 C)
Dew Point: 39 F (4 C)
Relative Humidity: 44%
Pressure (altimeter): 29.85 in. Hg (1011 hPa)
ob: LIRN 101350Z 33006KT CAVOK 16/04 Q1011 NOSIG
cycle: 14

Station Type Date Time Source
LIRN TAF 2018/12/10 12:21 UTC NOAA

TAF LIRN 101100Z 1012/1112 03012KT CAVOK


Example: see airport list